createdAt,value
2023-01-21T00:06:44.731Z,124.03
2023-01-21T00:21:46.784Z,104.38
2023-01-21T00:36:48.706Z,115.55
2023-01-21T00:51:50.775Z,122.13
2023-01-21T01:06:52.728Z,122.25
2023-01-21T01:21:54.656Z,113.63
2023-01-21T01:36:56.629Z,111.78
2023-01-21T01:52:01.740Z,123.13
2023-01-21T02:07:04.434Z,122.60
2023-01-21T02:22:26.576Z,121.80
2023-01-21T02:37:55.875Z,89.43
2023-01-21T02:53:03.301Z,76.60
2023-01-21T03:08:19.376Z,69.32
2023-01-21T03:23:28.195Z,57.40
2023-01-21T03:38:39.933Z,57.15
2023-01-21T03:53:42.952Z,60.13
2023-01-21T04:08:45.343Z,62.10
2023-01-21T04:23:47.483Z,56.42
2023-01-21T04:38:49.522Z,60.17
2023-01-21T04:53:51.446Z,54.13
2023-01-21T05:08:53.479Z,57.92
2023-01-21T05:23:55.465Z,52.08
2023-01-21T05:38:58.525Z,52.05
2023-01-21T05:54:00.472Z,51.45
2023-01-21T06:09:02.531Z,55.60
2023-01-21T06:24:04.588Z,55.97
2023-01-21T06:39:06.521Z,50.50
2023-01-21T06:54:10.053Z,47.83
2023-01-21T07:09:12.174Z,51.03
2023-01-21T07:24:14.176Z,52.97
2023-01-21T07:39:16.239Z,47.33
2023-01-21T07:54:18.228Z,42.55
2023-01-21T08:09:20.147Z,40.78
2023-01-21T08:24:22.260Z,46.80
2023-01-21T08:39:25.450Z,38.88
2023-01-21T08:54:27.463Z,40.42
2023-01-21T09:09:29.471Z,33.47
2023-01-21T09:24:32.019Z,42.95
2023-01-21T09:39:34.015Z,38.40
2023-01-21T09:54:37.293Z,33.75
2023-01-21T10:09:48.071Z,32.53
2023-01-21T10:25:15.525Z,31.10
2023-01-21T10:40:45.394Z,30.63
2023-01-21T10:56:02.271Z,27.83
2023-01-21T11:11:07.601Z,25.58
2023-01-21T11:26:23.651Z,20.45
2023-01-21T11:41:25.718Z,20.67
2023-01-21T11:56:27.694Z,14.30
2023-01-21T12:11:31.236Z,9.70
2023-01-21T12:26:36.091Z,15.73
2023-01-21T12:41:40.203Z,12.85
2023-01-21T12:57:20.671Z,12.38
2023-01-21T13:12:26.835Z,14.23
2023-01-21T13:27:55.712Z,17.13
2023-01-21T13:43:15.861Z,15.73
2023-01-21T13:58:42.837Z,16.02
2023-01-21T14:13:59.922Z,13.77
2023-01-21T14:29:32.928Z,12.80
2023-01-21T14:44:39.199Z,18.08
2023-01-21T14:59:44.671Z,17.08
2023-01-21T15:14:47.014Z,17.70
2023-01-21T15:29:54.745Z,16.50
2023-01-21T16:00:32.930Z,17.23
2023-01-21T16:15:43.946Z,16.77
2023-01-21T16:30:57.717Z,20.83
2023-01-21T16:46:11.372Z,21.42
2023-01-21T17:01:15.698Z,21.45
2023-01-21T17:16:31.489Z,23.00
2023-01-21T17:31:42.596Z,28.15
2023-01-21T17:46:53.304Z,25.92
2023-01-21T18:01:56.172Z,25.15
2023-01-21T18:16:58.296Z,28.42
2023-01-21T18:32:00.323Z,31.48
2023-01-21T18:47:02.340Z,34.40
2023-01-21T19:02:14.278Z,31.52
2023-01-21T19:17:26.988Z,35.58
2023-01-21T19:32:28.932Z,41.72
2023-01-21T19:47:30.905Z,44.28
2023-01-21T20:02:32.981Z,52.03
2023-01-21T20:17:35.465Z,55.22
2023-01-21T20:32:37.395Z,55.80
2023-01-21T20:47:49.624Z,53.90
2023-01-21T21:02:55.612Z,56.78
2023-01-21T21:17:58.343Z,63.10
2023-01-21T21:33:01.924Z,75.65
2023-01-21T21:48:23.131Z,72.60
2023-01-21T22:03:25.162Z,71.35
2023-01-21T22:18:28.413Z,74.00
2023-01-21T22:33:31.406Z,72.25
2023-01-21T22:48:34.097Z,83.22
2023-01-21T23:03:37.479Z,84.78
2023-01-21T23:18:40.613Z,77.60
2023-01-21T23:33:43.290Z,83.20
2023-01-21T23:48:45.760Z,85.68
